sensor_id;sensor_type;location;lat;lon;timestamp;P1;durP1;ratioP1;P2;durP2;ratioP2
39022;SDS011;25908;51.984;5.928;2023-08-07T00:00:30;4.93;;;1.48;;
39022;SDS011;25908;51.984;5.928;2023-08-07T00:02:55;4.90;;;1.27;;
39022;SDS011;25908;51.984;5.928;2023-08-07T00:05:21;3.45;;;1.35;;
39022;SDS011;25908;51.984;5.928;2023-08-07T00:07:46;5.95;;;1.17;;
39022;SDS011;25908;51.984;5.928;2023-08-07T00:10:12;2.85;;;0.80;;
39022;SDS011;25908;51.984;5.928;2023-08-07T00:12:38;3.55;;;1.10;;
39022;SDS011;25908;51.984;5.928;2023-08-07T00:15:04;2.90;;;0.68;;
39022;SDS011;25908;51.984;5.928;2023-08-07T00:17:30;3.35;;;0.77;;
39022;SDS011;25908;51.984;5.928;2023-08-07T00:19:56;3.47;;;0.95;;
39022;SDS011;25908;51.984;5.928;2023-08-07T00:22:22;1.83;;;0.77;;
39022;SDS011;25908;51.984;5.928;2023-08-07T00:24:48;1.80;;;0.68;;
39022;SDS011;25908;51.984;5.928;2023-08-07T00:27:13;3.88;;;0.80;;
39022;SDS011;25908;51.984;5.928;2023-08-07T00:29:39;2.33;;;0.70;;
39022;SDS011;25908;51.984;5.928;2023-08-07T00:32:05;1.70;;;0.60;;
39022;SDS011;25908;51.984;5.928;2023-08-07T00:34:31;2.33;;;0.65;;
39022;SDS011;25908;51.984;5.928;2023-08-07T00:36:57;2.65;;;0.80;;
39022;SDS011;25908;51.984;5.928;2023-08-07T00:39:22;4.85;;;0.82;;
39022;SDS011;25908;51.984;5.928;2023-08-07T00:41:48;2.35;;;0.80;;
39022;SDS011;25908;51.984;5.928;2023-08-07T00:44:14;3.63;;;0.85;;
39022;SDS011;25908;51.984;5.928;2023-08-07T00:46:39;3.95;;;0.90;;
39022;SDS011;25908;51.984;5.928;2023-08-07T00:49:06;3.25;;;0.90;;
39022;SDS011;25908;51.984;5.928;2023-08-07T00:51:33;2.72;;;0.90;;
39022;SDS011;25908;51.984;5.928;2023-08-07T00:53:59;2.95;;;1.05;;
39022;SDS011;25908;51.984;5.928;2023-08-07T00:56:27;4.80;;;0.85;;
39022;SDS011;25908;51.984;5.928;2023-08-07T00:58:53;4.50;;;1.13;;
39022;SDS011;25908;51.984;5.928;2023-08-07T01:01:19;4.32;;;1.27;;
39022;SDS011;25908;51.984;5.928;2023-08-07T01:03:45;2.40;;;0.82;;
39022;SDS011;25908;51.984;5.928;2023-08-07T01:06:10;4.93;;;1.20;;
39022;SDS011;25908;51.984;5.928;2023-08-07T01:08:36;3.85;;;0.80;;
39022;SDS011;25908;51.984;5.928;2023-08-07T01:11:14;3.08;;;0.85;;
39022;SDS011;25908;51.984;5.928;2023-08-07T01:13:57;6.88;;;1.13;;
39022;SDS011;25908;51.984;5.928;2023-08-07T01:16:47;4.72;;;1.13;;
39022;SDS011;25908;51.984;5.928;2023-08-07T01:19:23;4.10;;;1.20;;
39022;SDS011;25908;51.984;5.928;2023-08-07T01:21:50;4.45;;;0.90;;
39022;SDS011;25908;51.984;5.928;2023-08-07T01:24:28;4.95;;;1.30;;
39022;SDS011;25908;51.984;5.928;2023-08-07T01:26:54;6.65;;;1.20;;
39022;SDS011;25908;51.984;5.928;2023-08-07T01:29:24;4.20;;;1.10;;
39022;SDS011;25908;51.984;5.928;2023-08-07T01:31:56;3.10;;;1.05;;
39022;SDS011;25908;51.984;5.928;2023-08-07T01:34:25;5.78;;;1.60;;
39022;SDS011;25908;51.984;5.928;2023-08-07T01:36:51;4.07;;;1.10;;
39022;SDS011;25908;51.984;5.928;2023-08-07T01:39:19;6.88;;;1.63;;
39022;SDS011;25908;51.984;5.928;2023-08-07T01:41:45;2.53;;;1.00;;
39022;SDS011;25908;51.984;5.928;2023-08-07T01:44:12;6.68;;;1.42;;
39022;SDS011;25908;51.984;5.928;2023-08-07T01:46:38;5.47;;;1.23;;
39022;SDS011;25908;51.984;5.928;2023-08-07T01:49:03;6.80;;;1.42;;
39022;SDS011;25908;51.984;5.928;2023-08-07T01:51:29;5.20;;;1.48;;
39022;SDS011;25908;51.984;5.928;2023-08-07T01:53:54;7.30;;;1.35;;
39022;SDS011;25908;51.984;5.928;2023-08-07T01:56:20;11.82;;;1.70;;
39022;SDS011;25908;51.984;5.928;2023-08-07T01:58:46;5.70;;;1.40;;
39022;SDS011;25908;51.984;5.928;2023-08-07T02:01:11;7.68;;;1.70;;
39022;SDS011;25908;51.984;5.928;2023-08-07T02:03:37;5.43;;;1.77;;
39022;SDS011;25908;51.984;5.928;2023-08-07T02:06:02;7.30;;;2.67;;
39022;SDS011;25908;51.984;5.928;2023-08-07T02:08:28;6.80;;;2.13;;
39022;SDS011;25908;51.984;5.928;2023-08-07T02:10:54;7.57;;;1.98;;
39022;SDS011;25908;51.984;5.928;2023-08-07T02:13:19;7.10;;;1.75;;
39022;SDS011;25908;51.984;5.928;2023-08-07T02:15:45;9.32;;;2.00;;
39022;SDS011;25908;51.984;5.928;2023-08-07T02:18:10;6.47;;;1.80;;
39022;SDS011;25908;51.984;5.928;2023-08-07T02:20:36;9.52;;;1.75;;
39022;SDS011;25908;51.984;5.928;2023-08-07T02:23:02;6.65;;;1.73;;
39022;SDS011;25908;51.984;5.928;2023-08-07T02:25:27;8.35;;;1.90;;
39022;SDS011;25908;51.984;5.928;2023-08-07T02:27:53;9.95;;;2.65;;
39022;SDS011;25908;51.984;5.928;2023-08-07T02:30:18;9.65;;;1.95;;
39022;SDS011;25908;51.984;5.928;2023-08-07T02:32:44;6.93;;;2.10;;
39022;SDS011;25908;51.984;5.928;2023-08-07T02:35:11;11.10;;;1.95;;
39022;SDS011;25908;51.984;5.928;2023-08-07T02:37:36;8.18;;;2.08;;
39022;SDS011;25908;51.984;5.928;2023-08-07T02:40:02;7.00;;;1.83;;
39022;SDS011;25908;51.984;5.928;2023-08-07T02:42:29;6.53;;;2.00;;
39022;SDS011;25908;51.984;5.928;2023-08-07T02:44:54;10.05;;;2.38;;
39022;SDS011;25908;51.984;5.928;2023-08-07T02:47:20;6.55;;;1.83;;
39022;SDS011;25908;51.984;5.928;2023-08-07T02:49:45;7.85;;;1.98;;
39022;SDS011;25908;51.984;5.928;2023-08-07T02:52:11;6.45;;;1.92;;
39022;SDS011;25908;51.984;5.928;2023-08-07T02:54:37;8.98;;;2.00;;
39022;SDS011;25908;51.984;5.928;2023-08-07T02:57:02;6.50;;;2.05;;
39022;SDS011;25908;51.984;5.928;2023-08-07T02:59:28;7.13;;;1.80;;
39022;SDS011;25908;51.984;5.928;2023-08-07T03:01:53;7.88;;;2.45;;
39022;SDS011;25908;51.984;5.928;2023-08-07T03:04:19;10.73;;;2.45;;
39022;SDS011;25908;51.984;5.928;2023-08-07T03:06:44;9.35;;;2.13;;
39022;SDS011;25908;51.984;5.928;2023-08-07T03:09:10;8.52;;;2.22;;
39022;SDS011;25908;51.984;5.928;2023-08-07T03:11:35;7.05;;;3.15;;
39022;SDS011;25908;51.984;5.928;2023-08-07T03:14:01;7.45;;;2.58;;
39022;SDS011;25908;51.984;5.928;2023-08-07T03:16:28;6.80;;;2.53;;
39022;SDS011;25908;51.984;5.928;2023-08-07T03:18:53;5.95;;;1.92;;
39022;SDS011;25908;51.984;5.928;2023-08-07T03:21:19;7.20;;;1.67;;
39022;SDS011;25908;51.984;5.928;2023-08-07T03:23:45;10.45;;;2.03;;
39022;SDS011;25908;51.984;5.928;2023-08-07T03:26:11;9.88;;;2.55;;
39022;SDS011;25908;51.984;5.928;2023-08-07T03:28:38;5.78;;;2.35;;
39022;SDS011;25908;51.984;5.928;2023-08-07T03:31:04;5.40;;;1.92;;
39022;SDS011;25908;51.984;5.928;2023-08-07T03:33:29;9.32;;;1.80;;
39022;SDS011;25908;51.984;5.928;2023-08-07T03:35:55;5.10;;;1.83;;
39022;SDS011;25908;51.984;5.928;2023-08-07T03:38:21;8.77;;;2.25;;
39022;SDS011;25908;51.984;5.928;2023-08-07T03:40:46;4.35;;;1.73;;
39022;SDS011;25908;51.984;5.928;2023-08-07T03:43:12;3.83;;;1.50;;
39022;SDS011;25908;51.984;5.928;2023-08-07T03:45:38;6.63;;;2.30;;
39022;SDS011;25908;51.984;5.928;2023-08-07T03:48:04;6.65;;;1.85;;
39022;SDS011;25908;51.984;5.928;2023-08-07T03:50:29;7.18;;;2.28;;
39022;SDS011;25908;51.984;5.928;2023-08-07T03:52:55;5.82;;;1.73;;
39022;SDS011;25908;51.984;5.928;2023-08-07T03:55:21;6.55;;;1.67;;
39022;SDS011;25908;51.984;5.928;2023-08-07T03:57:47;4.50;;;1.70;;
39022;SDS011;25908;51.984;5.928;2023-08-07T04:00:12;6.70;;;1.70;;
39022;SDS011;25908;51.984;5.928;2023-08-07T04:02:38;6.65;;;1.77;;
39022;SDS011;25908;51.984;5.928;2023-08-07T04:05:04;7.25;;;1.80;;
39022;SDS011;25908;51.984;5.928;2023-08-07T04:07:30;6.70;;;1.92;;
39022;SDS011;25908;51.984;5.928;2023-08-07T04:09:55;8.85;;;2.35;;
39022;SDS011;25908;51.984;5.928;2023-08-07T04:12:21;5.68;;;1.77;;
39022;SDS011;25908;51.984;5.928;2023-08-07T04:14:47;8.68;;;1.60;;
39022;SDS011;25908;51.984;5.928;2023-08-07T04:17:12;5.93;;;1.60;;
39022;SDS011;25908;51.984;5.928;2023-08-07T04:19:38;9.38;;;2.90;;
39022;SDS011;25908;51.984;5.928;2023-08-07T04:22:04;6.25;;;1.70;;
39022;SDS011;25908;51.984;5.928;2023-08-07T04:24:29;4.97;;;1.63;;
39022;SDS011;25908;51.984;5.928;2023-08-07T04:26:55;9.27;;;2.38;;
39022;SDS011;25908;51.984;5.928;2023-08-07T04:29:20;4.38;;;1.40;;
39022;SDS011;25908;51.984;5.928;2023-08-07T04:31:46;6.13;;;2.00;;
39022;SDS011;25908;51.984;5.928;2023-08-07T04:34:12;6.13;;;1.67;;
39022;SDS011;25908;51.984;5.928;2023-08-07T04:36:37;4.32;;;1.42;;
39022;SDS011;25908;51.984;5.928;2023-08-07T04:39:03;6.38;;;1.35;;
39022;SDS011;25908;51.984;5.928;2023-08-07T04:41:28;4.15;;;1.23;;
39022;SDS011;25908;51.984;5.928;2023-08-07T04:43:54;4.75;;;1.63;;
39022;SDS011;25908;51.984;5.928;2023-08-07T04:46:20;5.18;;;1.38;;
39022;SDS011;25908;51.984;5.928;2023-08-07T04:48:45;4.68;;;1.67;;
39022;SDS011;25908;51.984;5.928;2023-08-07T04:51:12;5.50;;;1.35;;
39022;SDS011;25908;51.984;5.928;2023-08-07T04:53:38;4.50;;;1.67;;
39022;SDS011;25908;51.984;5.928;2023-08-07T04:56:04;3.55;;;1.42;;
39022;SDS011;25908;51.984;5.928;2023-08-07T04:58:29;4.78;;;1.55;;
39022;SDS011;25908;51.984;5.928;2023-08-07T05:00:55;4.30;;;1.55;;
39022;SDS011;25908;51.984;5.928;2023-08-07T05:03:21;5.20;;;1.52;;
39022;SDS011;25908;51.984;5.928;2023-08-07T05:05:47;7.15;;;1.48;;
39022;SDS011;25908;51.984;5.928;2023-08-07T05:08:12;7.30;;;1.48;;
39022;SDS011;25908;51.984;5.928;2023-08-07T05:10:38;3.65;;;1.80;;
39022;SDS011;25908;51.984;5.928;2023-08-07T05:13:03;4.57;;;1.67;;
39022;SDS011;25908;51.984;5.928;2023-08-07T05:15:29;6.45;;;1.70;;
39022;SDS011;25908;51.984;5.928;2023-08-07T05:17:56;6.22;;;1.73;;
39022;SDS011;25908;51.984;5.928;2023-08-07T05:20:21;5.28;;;1.80;;
39022;SDS011;25908;51.984;5.928;2023-08-07T05:22:47;10.35;;;2.13;;
39022;SDS011;25908;51.984;5.928;2023-08-07T05:25:12;4.30;;;1.70;;
39022;SDS011;25908;51.984;5.928;2023-08-07T05:27:41;6.38;;;2.15;;
39022;SDS011;25908;51.984;5.928;2023-08-07T05:30:10;3.75;;;1.50;;
39022;SDS011;25908;51.984;5.928;2023-08-07T05:32:36;4.95;;;1.85;;
39022;SDS011;25908;51.984;5.928;2023-08-07T05:35:05;7.40;;;2.30;;
39022;SDS011;25908;51.984;5.928;2023-08-07T05:37:31;11.57;;;3.70;;
39022;SDS011;25908;51.984;5.928;2023-08-07T05:39:57;7.47;;;2.28;;
39022;SDS011;25908;51.984;5.928;2023-08-07T05:42:23;7.30;;;2.28;;
39022;SDS011;25908;51.984;5.928;2023-08-07T05:44:49;7.80;;;2.47;;
39022;SDS011;25908;51.984;5.928;2023-08-07T05:47:14;8.38;;;2.20;;
39022;SDS011;25908;51.984;5.928;2023-08-07T05:49:40;7.07;;;2.30;;
39022;SDS011;25908;51.984;5.928;2023-08-07T05:52:06;6.28;;;2.10;;
39022;SDS011;25908;51.984;5.928;2023-08-07T05:54:32;8.75;;;2.40;;
39022;SDS011;25908;51.984;5.928;2023-08-07T05:56:58;5.13;;;1.80;;
39022;SDS011;25908;51.984;5.928;2023-08-07T05:59:23;6.20;;;2.00;;
39022;SDS011;25908;51.984;5.928;2023-08-07T06:01:49;7.35;;;2.13;;
39022;SDS011;25908;51.984;5.928;2023-08-07T06:04:16;9.60;;;2.85;;
39022;SDS011;25908;51.984;5.928;2023-08-07T06:06:42;8.90;;;2.63;;
39022;SDS011;25908;51.984;5.928;2023-08-07T06:09:08;10.43;;;2.38;;
39022;SDS011;25908;51.984;5.928;2023-08-07T06:11:33;6.88;;;2.28;;
39022;SDS011;25908;51.984;5.928;2023-08-07T06:13:59;10.90;;;2.75;;
39022;SDS011;25908;51.984;5.928;2023-08-07T06:16:25;7.00;;;2.25;;
39022;SDS011;25908;51.984;5.928;2023-08-07T06:18:51;8.23;;;1.92;;
39022;SDS011;25908;51.984;5.928;2023-08-07T06:21:17;9.85;;;3.20;;
39022;SDS011;25908;51.984;5.928;2023-08-07T06:23:42;7.22;;;2.35;;
39022;SDS011;25908;51.984;5.928;2023-08-07T06:26:08;6.63;;;2.25;;
39022;SDS011;25908;51.984;5.928;2023-08-07T06:28:34;6.45;;;2.63;;
39022;SDS011;25908;51.984;5.928;2023-08-07T06:31:04;5.63;;;1.85;;
39022;SDS011;25908;51.984;5.928;2023-08-07T06:33:31;10.35;;;2.47;;
39022;SDS011;25908;51.984;5.928;2023-08-07T06:35:58;11.48;;;4.03;;
39022;SDS011;25908;51.984;5.928;2023-08-07T06:38:24;8.65;;;2.42;;
39022;SDS011;25908;51.984;5.928;2023-08-07T06:40:50;8.35;;;2.63;;
39022;SDS011;25908;51.984;5.928;2023-08-07T06:43:16;6.43;;;2.10;;
39022;SDS011;25908;51.984;5.928;2023-08-07T06:45:41;7.22;;;2.20;;
39022;SDS011;25908;51.984;5.928;2023-08-07T06:48:07;7.07;;;2.63;;
39022;SDS011;25908;51.984;5.928;2023-08-07T06:50:34;9.32;;;2.50;;
39022;SDS011;25908;51.984;5.928;2023-08-07T06:53:00;8.55;;;3.03;;
39022;SDS011;25908;51.984;5.928;2023-08-07T06:55:25;6.80;;;2.10;;
39022;SDS011;25908;51.984;5.928;2023-08-07T06:57:51;8.73;;;2.85;;
39022;SDS011;25908;51.984;5.928;2023-08-07T07:00:17;9.80;;;2.78;;
39022;SDS011;25908;51.984;5.928;2023-08-07T07:02:43;7.88;;;2.47;;
39022;SDS011;25908;51.984;5.928;2023-08-07T07:05:08;11.05;;;3.08;;
39022;SDS011;25908;51.984;5.928;2023-08-07T07:07:34;10.75;;;2.33;;
39022;SDS011;25908;51.984;5.928;2023-08-07T07:10:00;10.07;;;2.67;;
39022;SDS011;25908;51.984;5.928;2023-08-07T07:12:29;7.60;;;2.25;;
39022;SDS011;25908;51.984;5.928;2023-08-07T07:14:54;9.75;;;2.70;;
39022;SDS011;25908;51.984;5.928;2023-08-07T07:17:20;8.43;;;2.05;;
39022;SDS011;25908;51.984;5.928;2023-08-07T07:19:46;13.05;;;2.30;;
39022;SDS011;25908;51.984;5.928;2023-08-07T07:22:12;8.85;;;2.05;;
39022;SDS011;25908;51.984;5.928;2023-08-07T07:24:37;8.55;;;2.25;;
39022;SDS011;25908;51.984;5.928;2023-08-07T07:27:03;6.55;;;2.20;;
39022;SDS011;25908;51.984;5.928;2023-08-07T07:29:29;10.23;;;2.40;;
39022;SDS011;25908;51.984;5.928;2023-08-07T07:31:55;8.55;;;2.20;;
39022;SDS011;25908;51.984;5.928;2023-08-07T07:34:21;9.70;;;2.42;;
39022;SDS011;25908;51.984;5.928;2023-08-07T07:36:47;7.18;;;2.22;;
39022;SDS011;25908;51.984;5.928;2023-08-07T07:39:12;5.28;;;2.25;;
39022;SDS011;25908;51.984;5.928;2023-08-07T07:41:38;8.75;;;2.15;;
39022;SDS011;25908;51.984;5.928;2023-08-07T07:44:04;7.63;;;2.03;;
39022;SDS011;25908;51.984;5.928;2023-08-07T07:46:30;8.77;;;2.28;;
39022;SDS011;25908;51.984;5.928;2023-08-07T07:48:56;8.52;;;2.50;;
39022;SDS011;25908;51.984;5.928;2023-08-07T07:51:22;8.63;;;2.60;;
39022;SDS011;25908;51.984;5.928;2023-08-07T07:53:48;9.65;;;2.67;;
39022;SDS011;25908;51.984;5.928;2023-08-07T07:56:14;8.07;;;2.30;;
39022;SDS011;25908;51.984;5.928;2023-08-07T07:58:39;8.40;;;2.75;;
39022;SDS011;25908;51.984;5.928;2023-08-07T08:01:06;9.10;;;2.65;;
39022;SDS011;25908;51.984;5.928;2023-08-07T08:03:32;8.13;;;2.53;;
39022;SDS011;25908;51.984;5.928;2023-08-07T08:05:58;10.55;;;2.30;;
39022;SDS011;25908;51.984;5.928;2023-08-07T08:08:24;6.63;;;1.95;;
39022;SDS011;25908;51.984;5.928;2023-08-07T08:10:50;7.97;;;2.60;;
39022;SDS011;25908;51.984;5.928;2023-08-07T08:13:16;8.02;;;2.38;;
39022;SDS011;25908;51.984;5.928;2023-08-07T08:15:43;8.48;;;2.60;;
39022;SDS011;25908;51.984;5.928;2023-08-07T08:18:09;8.30;;;2.58;;
39022;SDS011;25908;51.984;5.928;2023-08-07T08:20:35;9.27;;;2.50;;
39022;SDS011;25908;51.984;5.928;2023-08-07T08:23:01;10.50;;;3.53;;
39022;SDS011;25908;51.984;5.928;2023-08-07T08:25:28;8.15;;;2.63;;
39022;SDS011;25908;51.984;5.928;2023-08-07T08:27:53;5.82;;;2.22;;
39022;SDS011;25908;51.984;5.928;2023-08-07T08:30:19;5.75;;;1.98;;
39022;SDS011;25908;51.984;5.928;2023-08-07T08:32:45;8.70;;;2.20;;
39022;SDS011;25908;51.984;5.928;2023-08-07T08:35:11;6.85;;;2.30;;
39022;SDS011;25908;51.984;5.928;2023-08-07T08:37:36;6.72;;;2.35;;
39022;SDS011;25908;51.984;5.928;2023-08-07T08:40:02;7.75;;;1.88;;
39022;SDS011;25908;51.984;5.928;2023-08-07T08:42:28;5.82;;;2.03;;
39022;SDS011;25908;51.984;5.928;2023-08-07T08:44:54;5.70;;;1.98;;
39022;SDS011;25908;51.984;5.928;2023-08-07T08:47:21;6.28;;;1.95;;
39022;SDS011;25908;51.984;5.928;2023-08-07T08:49:49;5.55;;;2.03;;
39022;SDS011;25908;51.984;5.928;2023-08-07T08:52:19;4.95;;;1.67;;
39022;SDS011;25908;51.984;5.928;2023-08-07T08:54:46;8.77;;;1.75;;
39022;SDS011;25908;51.984;5.928;2023-08-07T08:57:13;6.90;;;1.80;;
39022;SDS011;25908;51.984;5.928;2023-08-07T08:59:40;7.78;;;2.63;;
39022;SDS011;25908;51.984;5.928;2023-08-07T09:02:06;5.32;;;1.60;;
39022;SDS011;25908;51.984;5.928;2023-08-07T09:04:33;7.00;;;1.88;;
39022;SDS011;25908;51.984;5.928;2023-08-07T09:06:58;7.57;;;2.28;;
39022;SDS011;25908;51.984;5.928;2023-08-07T09:09:25;6.88;;;2.22;;
39022;SDS011;25908;51.984;5.928;2023-08-07T09:11:52;6.35;;;1.77;;
39022;SDS011;25908;51.984;5.928;2023-08-07T09:14:20;6.93;;;2.22;;
39022;SDS011;25908;51.984;5.928;2023-08-07T09:16:49;8.45;;;2.92;;
39022;SDS011;25908;51.984;5.928;2023-08-07T09:19:15;6.38;;;2.30;;
39022;SDS011;25908;51.984;5.928;2023-08-07T09:21:40;8.70;;;2.90;;
39022;SDS011;25908;51.984;5.928;2023-08-07T09:24:06;8.98;;;3.13;;
39022;SDS011;25908;51.984;5.928;2023-08-07T09:26:32;8.13;;;2.00;;
39022;SDS011;25908;51.984;5.928;2023-08-07T09:29:01;9.27;;;2.72;;
39022;SDS011;25908;51.984;5.928;2023-08-07T09:31:28;9.60;;;2.40;;
39022;SDS011;25908;51.984;5.928;2023-08-07T09:33:57;9.00;;;2.20;;
39022;SDS011;25908;51.984;5.928;2023-08-07T09:36:29;6.25;;;1.77;;
39022;SDS011;25908;51.984;5.928;2023-08-07T09:38:55;6.68;;;2.28;;
39022;SDS011;25908;51.984;5.928;2023-08-07T09:41:21;7.95;;;2.53;;
39022;SDS011;25908;51.984;5.928;2023-08-07T09:43:47;8.20;;;2.03;;
39022;SDS011;25908;51.984;5.928;2023-08-07T09:46:12;7.93;;;2.38;;
39022;SDS011;25908;51.984;5.928;2023-08-07T09:48:42;5.72;;;1.50;;
39022;SDS011;25908;51.984;5.928;2023-08-07T09:51:08;5.90;;;1.85;;
39022;SDS011;25908;51.984;5.928;2023-08-07T09:53:34;5.22;;;2.03;;
39022;SDS011;25908;51.984;5.928;2023-08-07T09:56:00;6.53;;;1.83;;
39022;SDS011;25908;51.984;5.928;2023-08-07T09:58:26;8.73;;;2.20;;
39022;SDS011;25908;51.984;5.928;2023-08-07T10:00:52;5.68;;;1.67;;
39022;SDS011;25908;51.984;5.928;2023-08-07T10:03:18;5.18;;;2.00;;
39022;SDS011;25908;51.984;5.928;2023-08-07T10:05:44;4.32;;;1.70;;
39022;SDS011;25908;51.984;5.928;2023-08-07T10:08:11;6.25;;;2.33;;
39022;SDS011;25908;51.984;5.928;2023-08-07T10:10:40;7.40;;;2.25;;
39022;SDS011;25908;51.984;5.928;2023-08-07T10:13:06;6.97;;;1.75;;
39022;SDS011;25908;51.984;5.928;2023-08-07T10:15:32;7.25;;;1.70;;
39022;SDS011;25908;51.984;5.928;2023-08-07T10:17:59;5.55;;;1.65;;
39022;SDS011;25908;51.984;5.928;2023-08-07T10:20:29;4.00;;;1.75;;
39022;SDS011;25908;51.984;5.928;2023-08-07T10:23:00;8.05;;;1.42;;
39022;SDS011;25908;51.984;5.928;2023-08-07T10:25:31;5.45;;;1.40;;
39022;SDS011;25908;51.984;5.928;2023-08-07T10:27:58;5.60;;;1.60;;
39022;SDS011;25908;51.984;5.928;2023-08-07T10:30:25;9.20;;;1.95;;
39022;SDS011;25908;51.984;5.928;2023-08-07T10:32:52;4.97;;;1.70;;
39022;SDS011;25908;51.984;5.928;2023-08-07T10:35:25;5.40;;;1.45;;
39022;SDS011;25908;51.984;5.928;2023-08-07T10:37:54;5.30;;;1.92;;
39022;SDS011;25908;51.984;5.928;2023-08-07T10:40:20;5.20;;;1.60;;
39022;SDS011;25908;51.984;5.928;2023-08-07T10:42:52;6.70;;;1.60;;
39022;SDS011;25908;51.984;5.928;2023-08-07T10:45:25;10.68;;;1.70;;
39022;SDS011;25908;51.984;5.928;2023-08-07T10:50:31;5.47;;;1.73;;
39022;SDS011;25908;51.984;5.928;2023-08-07T10:52:59;7.93;;;1.88;;
39022;SDS011;25908;51.984;5.928;2023-08-07T10:55:30;7.10;;;2.10;;
39022;SDS011;25908;51.984;5.928;2023-08-07T10:58:07;6.38;;;1.90;;
39022;SDS011;25908;51.984;5.928;2023-08-07T11:00:48;7.13;;;2.10;;
39022;SDS011;25908;51.984;5.928;2023-08-07T11:03:19;6.53;;;1.80;;
39022;SDS011;25908;51.984;5.928;2023-08-07T11:05:52;5.93;;;2.00;;
39022;SDS011;25908;51.984;5.928;2023-08-07T11:08:21;2.90;;;1.23;;
39022;SDS011;25908;51.984;5.928;2023-08-07T11:10:48;4.82;;;1.42;;
39022;SDS011;25908;51.984;5.928;2023-08-07T11:13:15;6.50;;;1.17;;
39022;SDS011;25908;51.984;5.928;2023-08-07T11:15:40;4.07;;;1.45;;
39022;SDS011;25908;51.984;5.928;2023-08-07T11:18:06;4.43;;;1.52;;
39022;SDS011;25908;51.984;5.928;2023-08-07T11:20:32;5.05;;;1.40;;
39022;SDS011;25908;51.984;5.928;2023-08-07T11:23:00;5.03;;;1.67;;
39022;SDS011;25908;51.984;5.928;2023-08-07T11:25:26;3.70;;;1.33;;
39022;SDS011;25908;51.984;5.928;2023-08-07T11:27:51;3.88;;;1.23;;
39022;SDS011;25908;51.984;5.928;2023-08-07T11:30:18;4.70;;;1.83;;
39022;SDS011;25908;51.984;5.928;2023-08-07T11:32:44;5.53;;;1.30;;
39022;SDS011;25908;51.984;5.928;2023-08-07T11:35:10;6.38;;;1.70;;
39022;SDS011;25908;51.984;5.928;2023-08-07T11:37:36;5.32;;;1.30;;
39022;SDS011;25908;51.984;5.928;2023-08-07T11:40:11;4.18;;;1.40;;
39022;SDS011;25908;51.984;5.928;2023-08-07T11:42:36;4.45;;;1.35;;
39022;SDS011;25908;51.984;5.928;2023-08-07T11:45:02;8.02;;;1.58;;
39022;SDS011;25908;51.984;5.928;2023-08-07T11:47:29;6.72;;;1.85;;
39022;SDS011;25908;51.984;5.928;2023-08-07T11:49:55;6.53;;;1.98;;
39022;SDS011;25908;51.984;5.928;2023-08-07T11:52:20;5.13;;;1.38;;
39022;SDS011;25908;51.984;5.928;2023-08-07T11:54:48;4.18;;;1.50;;
39022;SDS011;25908;51.984;5.928;2023-08-07T11:57:17;4.10;;;1.40;;
39022;SDS011;25908;51.984;5.928;2023-08-07T11:59:47;5.35;;;1.50;;
39022;SDS011;25908;51.984;5.928;2023-08-07T12:02:14;4.97;;;1.48;;
39022;SDS011;25908;51.984;5.928;2023-08-07T12:04:39;3.08;;;1.27;;
39022;SDS011;25908;51.984;5.928;2023-08-07T12:07:05;3.20;;;1.10;;
39022;SDS011;25908;51.984;5.928;2023-08-07T12:09:31;3.45;;;1.10;;
39022;SDS011;25908;51.984;5.928;2023-08-07T12:11:57;4.15;;;1.58;;
39022;SDS011;25908;51.984;5.928;2023-08-07T12:14:23;6.18;;;1.17;;
39022;SDS011;25908;51.984;5.928;2023-08-07T12:16:56;8.35;;;1.77;;
39022;SDS011;25908;51.984;5.928;2023-08-07T12:19:22;6.28;;;1.52;;
39022;SDS011;25908;51.984;5.928;2023-08-07T12:21:47;4.80;;;1.33;;
39022;SDS011;25908;51.984;5.928;2023-08-07T12:24:13;4.40;;;1.50;;
39022;SDS011;25908;51.984;5.928;2023-08-07T12:26:39;3.95;;;1.45;;
39022;SDS011;25908;51.984;5.928;2023-08-07T12:29:04;4.78;;;1.30;;
39022;SDS011;25908;51.984;5.928;2023-08-07T12:31:30;5.50;;;1.60;;
39022;SDS011;25908;51.984;5.928;2023-08-07T12:33:55;4.43;;;1.67;;
39022;SDS011;25908;51.984;5.928;2023-08-07T12:36:21;3.45;;;1.35;;
39022;SDS011;25908;51.984;5.928;2023-08-07T12:38:47;4.30;;;1.55;;
39022;SDS011;25908;51.984;5.928;2023-08-07T12:41:12;5.15;;;1.40;;
39022;SDS011;25908;51.984;5.928;2023-08-07T12:43:39;2.88;;;1.23;;
39022;SDS011;25908;51.984;5.928;2023-08-07T12:46:04;3.45;;;1.25;;
39022;SDS011;25908;51.984;5.928;2023-08-07T12:48:30;3.65;;;1.35;;
39022;SDS011;25908;51.984;5.928;2023-08-07T12:50:56;3.80;;;1.05;;
39022;SDS011;25908;51.984;5.928;2023-08-07T12:53:21;4.85;;;1.50;;
39022;SDS011;25908;51.984;5.928;2023-08-07T12:55:47;7.05;;;1.60;;
39022;SDS011;25908;51.984;5.928;2023-08-07T12:58:12;4.05;;;1.52;;
39022;SDS011;25908;51.984;5.928;2023-08-07T13:00:38;5.28;;;1.58;;
39022;SDS011;25908;51.984;5.928;2023-08-07T13:03:03;2.50;;;1.08;;
39022;SDS011;25908;51.984;5.928;2023-08-07T13:05:29;4.50;;;1.90;;
39022;SDS011;25908;51.984;5.928;2023-08-07T13:07:56;4.60;;;1.20;;
39022;SDS011;25908;51.984;5.928;2023-08-07T13:10:23;2.80;;;1.10;;
39022;SDS011;25908;51.984;5.928;2023-08-07T13:12:49;2.17;;;1.02;;
39022;SDS011;25908;51.984;5.928;2023-08-07T13:15:16;4.25;;;1.05;;
39022;SDS011;25908;51.984;5.928;2023-08-07T13:17:42;4.07;;;1.25;;
39022;SDS011;25908;51.984;5.928;2023-08-07T13:20:09;5.68;;;1.20;;
39022;SDS011;25908;51.984;5.928;2023-08-07T13:22:37;4.57;;;1.38;;
39022;SDS011;25908;51.984;5.928;2023-08-07T13:25:04;4.35;;;1.13;;
39022;SDS011;25908;51.984;5.928;2023-08-07T13:27:33;4.50;;;1.20;;
39022;SDS011;25908;51.984;5.928;2023-08-07T13:30:00;3.50;;;1.30;;
39022;SDS011;25908;51.984;5.928;2023-08-07T13:32:26;4.72;;;1.30;;
39022;SDS011;25908;51.984;5.928;2023-08-07T13:34:52;3.38;;;1.38;;
39022;SDS011;25908;51.984;5.928;2023-08-07T13:37:18;3.80;;;1.10;;
39022;SDS011;25908;51.984;5.928;2023-08-07T13:39:44;6.65;;;1.50;;
39022;SDS011;25908;51.984;5.928;2023-08-07T13:42:09;3.78;;;1.50;;
39022;SDS011;25908;51.984;5.928;2023-08-07T13:44:36;3.15;;;1.17;;
39022;SDS011;25908;51.984;5.928;2023-08-07T13:47:01;5.03;;;1.13;;
39022;SDS011;25908;51.984;5.928;2023-08-07T13:49:27;3.70;;;1.20;;
39022;SDS011;25908;51.984;5.928;2023-08-07T13:51:53;4.95;;;1.48;;
39022;SDS011;25908;51.984;5.928;2023-08-07T13:54:19;4.60;;;1.13;;
39022;SDS011;25908;51.984;5.928;2023-08-07T13:56:44;6.05;;;1.35;;
39022;SDS011;25908;51.984;5.928;2023-08-07T13:59:10;5.53;;;1.27;;
39022;SDS011;25908;51.984;5.928;2023-08-07T14:01:36;4.55;;;1.00;;
39022;SDS011;25908;51.984;5.928;2023-08-07T14:04:02;4.75;;;1.65;;
39022;SDS011;25908;51.984;5.928;2023-08-07T14:06:28;2.85;;;1.10;;
39022;SDS011;25908;51.984;5.928;2023-08-07T14:08:53;5.55;;;1.10;;
39022;SDS011;25908;51.984;5.928;2023-08-07T14:11:19;5.10;;;1.50;;
39022;SDS011;25908;51.984;5.928;2023-08-07T14:13:45;5.00;;;1.33;;
39022;SDS011;25908;51.984;5.928;2023-08-07T14:16:11;4.05;;;1.33;;
39022;SDS011;25908;51.984;5.928;2023-08-07T14:18:37;3.70;;;0.88;;
39022;SDS011;25908;51.984;5.928;2023-08-07T14:21:03;3.08;;;1.10;;
39022;SDS011;25908;51.984;5.928;2023-08-07T14:23:29;3.70;;;1.42;;
39022;SDS011;25908;51.984;5.928;2023-08-07T14:25:55;4.72;;;1.30;;
39022;SDS011;25908;51.984;5.928;2023-08-07T14:28:20;2.08;;;1.08;;
39022;SDS011;25908;51.984;5.928;2023-08-07T14:30:47;4.60;;;0.93;;
39022;SDS011;25908;51.984;5.928;2023-08-07T14:33:13;3.17;;;0.95;;
39022;SDS011;25908;51.984;5.928;2023-08-07T14:35:38;2.08;;;0.98;;
39022;SDS011;25908;51.984;5.928;2023-08-07T14:38:04;2.22;;;0.80;;
39022;SDS011;25908;51.984;5.928;2023-08-07T14:40:29;2.33;;;1.00;;
39022;SDS011;25908;51.984;5.928;2023-08-07T14:42:55;3.30;;;0.90;;
39022;SDS011;25908;51.984;5.928;2023-08-07T14:45:21;2.45;;;1.00;;